createdAt,value
2023-01-09T00:01:33.953Z,100.00
2023-01-09T00:04:02.832Z,100.00
2023-01-09T00:06:31.485Z,100.00
2023-01-09T00:08:59.947Z,100.00
2023-01-09T00:11:28.327Z,100.00
2023-01-09T00:13:58.074Z,100.00
2023-01-09T00:16:26.830Z,100.00
2023-01-09T00:18:55.297Z,100.00
2023-01-09T00:21:24.059Z,100.00
2023-01-09T00:23:55.058Z,100.00
2023-01-09T00:26:23.886Z,100.00
2023-01-09T00:28:54.164Z,100.00
2023-01-09T00:31:23.952Z,100.00
2023-01-09T00:33:56.686Z,100.00
2023-01-09T00:36:25.055Z,100.00
2023-01-09T00:38:53.755Z,100.00
2023-01-09T00:41:26.010Z,100.00
2023-01-09T00:43:58.321Z,100.00
2023-01-09T00:46:32.579Z,100.00
2023-01-09T00:49:03.303Z,100.00
2023-01-09T00:51:31.767Z,100.00
2023-01-09T00:54:00.653Z,100.00
2023-01-09T00:56:29.030Z,100.00
2023-01-09T00:58:57.607Z,100.00
2023-01-09T01:01:26.118Z,100.00
2023-01-09T01:03:56.689Z,100.00
2023-01-09T01:06:42.772Z,100.00
2023-01-09T01:09:11.134Z,100.00
2023-01-09T01:11:39.498Z,100.00
2023-01-09T01:14:07.991Z,100.00
2023-01-09T01:16:36.464Z,100.00
2023-01-09T01:19:06.209Z,100.00
2023-01-09T01:21:34.561Z,100.00
2023-01-09T01:24:02.931Z,100.00
2023-01-09T01:26:31.319Z,100.00
2023-01-09T01:29:00.127Z,100.00
2023-01-09T01:31:28.488Z,100.00
2023-01-09T01:33:56.818Z,100.00
2023-01-09T01:36:26.495Z,100.00
2023-01-09T01:38:54.918Z,100.00
2023-01-09T01:41:30.254Z,100.00
2023-01-09T01:44:01.644Z,100.00
2023-01-09T01:46:30.524Z,100.00
2023-01-09T01:49:02.223Z,100.00
2023-01-09T01:51:35.927Z,100.00
2023-01-09T01:54:09.275Z,100.00
2023-01-09T01:56:41.544Z,100.00
2023-01-09T01:59:14.955Z,100.00
2023-01-09T02:01:50.200Z,100.00
2023-01-09T02:04:18.949Z,100.00
2023-01-09T02:06:51.476Z,100.00
2023-01-09T02:09:22.848Z,100.00
2023-01-09T02:11:53.362Z,100.00
2023-01-09T02:14:25.493Z,100.00
2023-01-09T02:17:02.570Z,100.00
2023-01-09T02:19:58.640Z,100.00
2023-01-09T02:22:36.956Z,100.00
2023-01-09T02:25:27.380Z,100.00
2023-01-09T02:28:28.789Z,100.00
2023-01-09T02:31:09.029Z,100.00
2023-01-09T02:33:51.263Z,100.00
2023-01-09T02:36:29.514Z,100.00
2023-01-09T02:39:17.154Z,100.00
2023-01-09T02:41:51.980Z,100.00
2023-01-09T02:44:23.531Z,100.00
2023-01-09T02:47:03.726Z,100.00
2023-01-09T02:49:33.751Z,100.00
2023-01-09T02:52:14.752Z,100.00
2023-01-09T02:54:55.547Z,100.00
2023-01-09T02:57:37.902Z,100.00
2023-01-09T03:00:13.623Z,100.00
2023-01-09T03:02:50.879Z,100.00
2023-01-09T03:05:26.139Z,100.00
2023-01-09T03:08:01.733Z,100.00
2023-01-09T03:10:42.514Z,100.00
2023-01-09T03:13:15.185Z,100.00
2023-01-09T03:15:49.562Z,100.00
2023-01-09T03:18:21.560Z,100.00
2023-01-09T03:20:51.059Z,100.00
2023-01-09T03:23:19.533Z,100.00
2023-01-09T03:25:48.076Z,100.00
2023-01-09T03:28:27.178Z,100.00
2023-01-09T03:30:55.963Z,100.00
2023-01-09T03:33:25.689Z,100.00
2023-01-09T03:35:54.000Z,100.00
2023-01-09T03:38:22.405Z,100.00
2023-01-09T03:40:51.340Z,100.00
2023-01-09T03:43:19.837Z,100.00
2023-01-09T03:45:48.244Z,100.00
2023-01-09T03:48:16.693Z,100.00
2023-01-09T03:50:47.383Z,100.00
2023-01-09T03:53:16.232Z,100.00
2023-01-09T03:55:46.435Z,100.00
2023-01-09T03:58:15.299Z,100.00
2023-01-09T04:00:45.927Z,100.00
2023-01-09T04:03:14.497Z,100.00
2023-01-09T04:05:43.173Z,100.00
2023-01-09T04:08:13.295Z,100.00
2023-01-09T04:10:42.104Z,100.00
2023-01-09T04:13:10.495Z,100.00
2023-01-09T04:15:38.834Z,100.00
2023-01-09T04:18:07.297Z,100.00
2023-01-09T04:20:35.970Z,100.00
2023-01-09T04:23:04.342Z,100.00
2023-01-09T04:25:34.122Z,100.00
2023-01-09T04:28:02.478Z,100.00
2023-01-09T04:30:30.898Z,100.00
2023-01-09T04:32:59.246Z,100.00
2023-01-09T04:35:27.623Z,100.00
2023-01-09T04:37:55.975Z,100.00
2023-01-09T04:40:24.336Z,100.00
2023-01-09T04:42:54.042Z,100.00
2023-01-09T04:45:22.498Z,100.00
2023-01-09T04:47:50.851Z,100.00
2023-01-09T04:50:19.550Z,100.00
2023-01-09T04:52:47.915Z,100.00
2023-01-09T04:55:16.302Z,100.00
2023-01-09T04:57:44.737Z,100.00
2023-01-09T05:00:14.984Z,100.00
2023-01-09T05:02:43.561Z,100.00
2023-01-09T05:05:12.367Z,100.00
2023-01-09T05:07:41.085Z,100.00
2023-01-09T05:10:11.041Z,100.00
2023-01-09T05:12:39.810Z,100.00
2023-01-09T05:15:09.869Z,100.00
2023-01-09T05:17:39.585Z,100.00
2023-01-09T05:20:08.793Z,100.00
2023-01-09T05:22:37.128Z,100.00
2023-01-09T05:25:06.064Z,100.00
2023-01-09T05:27:34.426Z,100.00
2023-01-09T05:30:02.776Z,100.00
2023-01-09T05:32:31.163Z,100.00
2023-01-09T05:35:00.883Z,100.00
2023-01-09T05:37:29.225Z,100.00
2023-01-09T05:39:57.634Z,100.00
2023-01-09T05:42:26.033Z,100.00
2023-01-09T05:44:54.458Z,100.00
2023-01-09T05:47:22.804Z,100.00
2023-01-09T05:49:51.197Z,100.00
2023-01-09T05:52:20.899Z,100.00
2023-01-09T05:54:49.274Z,100.00
2023-01-09T05:57:18.199Z,100.00
2023-01-09T05:59:46.593Z,100.00
2023-01-09T06:02:15.206Z,100.00
2023-01-09T06:04:44.438Z,100.00
2023-01-09T06:07:17.284Z,100.00
2023-01-09T06:09:49.298Z,100.00
2023-01-09T06:12:17.657Z,100.00
2023-01-09T06:14:46.111Z,100.00
2023-01-09T06:17:14.463Z,100.00
2023-01-09T06:19:42.837Z,100.00
2023-01-09T06:22:11.226Z,100.00
2023-01-09T06:24:39.561Z,100.00
2023-01-09T06:27:09.303Z,100.00
2023-01-09T06:29:37.656Z,100.00
2023-01-09T06:32:06.848Z,100.00
2023-01-09T06:34:35.376Z,100.00
2023-01-09T06:37:03.720Z,100.00
2023-01-09T06:39:32.087Z,100.00
2023-01-09T06:42:00.431Z,100.00
2023-01-09T06:44:30.173Z,100.00
2023-01-09T06:46:58.528Z,100.00
2023-01-09T06:49:26.928Z,100.00
2023-01-09T06:51:55.320Z,100.00
2023-01-09T06:54:23.859Z,100.00
2023-01-09T06:56:52.305Z,100.00
2023-01-09T06:59:20.867Z,100.00
2023-01-09T07:01:50.705Z,100.00
2023-01-09T07:04:21.928Z,100.00
2023-01-09T07:06:50.992Z,100.00
2023-01-09T07:09:19.354Z,100.00
2023-01-09T07:11:47.869Z,100.00
2023-01-09T07:14:16.321Z,100.00
2023-01-09T07:16:44.657Z,100.00
2023-01-09T07:19:14.376Z,100.00
2023-01-09T07:21:42.789Z,100.00
2023-01-09T07:24:11.107Z,100.00
2023-01-09T07:26:39.581Z,100.00
2023-01-09T07:29:07.946Z,100.00
2023-01-09T07:31:36.392Z,100.00
2023-01-09T07:34:04.765Z,100.00
2023-01-09T07:36:34.497Z,100.00
2023-01-09T07:39:02.866Z,100.00
2023-01-09T07:41:31.210Z,100.00
2023-01-09T07:43:59.560Z,100.00
2023-01-09T07:46:29.138Z,100.00
2023-01-09T07:48:57.557Z,100.00
2023-01-09T07:51:26.154Z,100.00
2023-01-09T07:53:55.873Z,100.00
2023-01-09T07:56:24.288Z,100.00
2023-01-09T07:58:52.709Z,100.00
2023-01-09T08:01:21.167Z,100.00
2023-01-09T08:03:49.595Z,100.00
2023-01-09T08:06:17.924Z,100.00
2023-01-09T08:08:46.385Z,100.00
2023-01-09T08:11:16.108Z,100.00
2023-01-09T08:13:44.487Z,100.00
2023-01-09T08:16:13.024Z,100.00
2023-01-09T08:18:41.405Z,100.00
2023-01-09T08:21:13.723Z,100.00
2023-01-09T08:23:42.072Z,100.00
2023-01-09T08:26:10.505Z,100.00
2023-01-09T08:28:40.249Z,100.00
2023-01-09T08:31:08.658Z,100.00
2023-01-09T08:33:40.376Z,100.00
2023-01-09T08:36:09.564Z,100.00
2023-01-09T08:38:37.984Z,100.00
2023-01-09T08:41:31.475Z,100.00
2023-01-09T08:44:18.543Z,100.00
2023-01-09T08:47:04.275Z,100.00
2023-01-09T08:49:32.700Z,100.00
2023-01-09T08:52:01.097Z,100.00
2023-01-09T08:54:31.226Z,100.00
2023-01-09T08:56:59.912Z,100.00
2023-01-09T08:59:29.651Z,100.00
2023-01-09T09:01:58.397Z,100.00
2023-01-09T09:04:27.104Z,100.00
2023-01-09T09:06:55.633Z,100.00
2023-01-09T09:09:25.203Z,100.00
2023-01-09T09:11:53.942Z,100.00
2023-01-09T09:14:40.086Z,100.00
2023-01-09T09:17:09.914Z,100.00
2023-01-09T09:19:39.516Z,100.00
2023-01-09T09:22:07.977Z,100.00
2023-01-09T09:24:36.432Z,100.00
2023-01-09T09:27:05.134Z,100.00
2023-01-09T09:29:33.467Z,100.00
2023-01-09T09:32:02.015Z,100.00
2023-01-09T09:34:31.847Z,100.00
2023-01-09T09:37:00.355Z,100.00
2023-01-09T09:39:28.774Z,100.00
2023-01-09T09:42:38.750Z,100.00
2023-01-09T09:45:19.293Z,100.00
2023-01-09T09:47:57.814Z,100.00
2023-01-09T09:50:59.299Z,100.00
2023-01-09T09:53:32.078Z,100.00
2023-01-09T09:56:01.736Z,100.00
2023-01-09T09:58:35.655Z,100.00
2023-01-09T10:01:05.918Z,100.00
2023-01-09T10:03:38.456Z,100.00
2023-01-09T10:06:14.151Z,100.00
2023-01-09T10:08:49.439Z,100.00
2023-01-09T10:11:23.966Z,100.00
2023-01-09T10:14:16.028Z,100.00
2023-01-09T10:17:14.081Z,100.00
2023-01-09T10:19:54.701Z,100.00
2023-01-09T10:22:33.277Z,100.00
2023-01-09T10:25:13.941Z,100.00
2023-01-09T10:27:59.278Z,100.00
2023-01-09T10:30:36.994Z,100.00
2023-01-09T10:33:19.175Z,100.00
2023-01-09T10:35:59.147Z,100.00
2023-01-09T10:38:34.754Z,100.00
2023-01-09T10:41:09.761Z,100.00
2023-01-09T10:43:45.222Z,100.00
2023-01-09T10:46:19.731Z,100.00
2023-01-09T10:48:53.367Z,100.00
2023-01-09T10:51:25.203Z,100.00
2023-01-09T10:53:57.385Z,100.00
2023-01-09T10:56:28.304Z,100.00
2023-01-09T10:58:57.664Z,100.00
2023-01-09T11:01:28.093Z,100.00
2023-01-09T11:03:59.088Z,100.00
2023-01-09T11:06:37.516Z,100.00
2023-01-09T11:09:07.608Z,100.00
2023-01-09T11:11:37.852Z,100.00
2023-01-09T11:14:13.956Z,100.00
2023-01-09T11:16:53.804Z,100.00
2023-01-09T11:19:23.446Z,100.00
2023-01-09T11:21:52.385Z,100.00
2023-01-09T11:24:31.447Z,100.00
2023-01-09T11:27:23.476Z,100.00
2023-01-09T11:30:27.897Z,100.00
2023-01-09T11:32:57.765Z,100.00
2023-01-09T11:35:33.076Z,100.00
2023-01-09T11:38:16.123Z,100.00
2023-01-09T11:40:51.201Z,100.00
2023-01-09T11:43:25.496Z,100.00
2023-01-09T11:46:00.993Z,100.00
2023-01-09T11:48:33.845Z,100.00
2023-01-09T11:51:04.231Z,100.00
2023-01-09T11:53:49.112Z,100.00
2023-01-09T11:56:19.357Z,100.00
2023-01-09T11:58:47.780Z,100.00
2023-01-09T12:01:39.025Z,100.00
2023-01-09T12:04:20.833Z,100.00
2023-01-09T12:07:20.461Z,100.00
2023-01-09T12:09:57.451Z,100.00
2023-01-09T12:12:32.939Z,100.00
2023-01-09T12:15:10.205Z,100.00
2023-01-09T12:18:03.152Z,100.00
2023-01-09T12:20:48.466Z,100.00
2023-01-09T12:23:26.593Z,100.00
2023-01-09T12:26:08.778Z,100.00
2023-01-09T12:29:00.214Z,100.00
2023-01-09T12:31:43.015Z,100.00
2023-01-09T12:34:27.922Z,100.00
2023-01-09T12:37:11.790Z,100.00
2023-01-09T12:39:49.980Z,100.00
2023-01-09T12:42:32.455Z,100.00
2023-01-09T12:45:08.351Z,100.00
2023-01-09T12:47:46.416Z,100.00
2023-01-09T12:50:29.524Z,100.00
2023-01-09T12:53:07.543Z,99.96
2023-01-09T12:55:39.885Z,100.00
2023-01-09T12:58:15.279Z,99.78
2023-01-09T13:00:50.282Z,99.04
2023-01-09T13:03:25.999Z,98.65
2023-01-09T13:05:57.416Z,98.27
2023-01-09T13:08:32.177Z,98.20
2023-01-09T13:11:19.545Z,98.82
2023-01-09T13:13:52.611Z,100.00
2023-01-09T13:16:27.750Z,98.07
2023-01-09T13:19:02.452Z,98.04
2023-01-09T13:21:30.888Z,99.26
2023-01-09T13:24:07.580Z,98.08
2023-01-09T13:26:38.944Z,98.01
2023-01-09T13:29:14.077Z,96.91
2023-01-09T13:32:23.891Z,96.78
2023-01-09T13:34:54.993Z,94.88
2023-01-09T13:37:26.961Z,93.48
2023-01-09T13:40:00.746Z,92.66
2023-01-09T13:42:44.224Z,91.00
2023-01-09T13:45:24.702Z,91.12
2023-01-09T13:48:26.202Z,91.72
2023-01-09T13:50:55.934Z,90.88
2023-01-09T13:53:47.907Z,90.30
2023-01-09T13:56:16.442Z,92.48
2023-01-09T13:59:09.240Z,91.13
2023-01-09T14:01:43.330Z,92.56
2023-01-09T14:04:45.623Z,92.38
2023-01-09T14:07:27.741Z,92.64
2023-01-09T14:10:00.625Z,93.50
2023-01-09T14:12:31.890Z,94.18
2023-01-09T14:15:03.140Z,95.08
2023-01-09T14:17:35.133Z,94.53
2023-01-09T14:20:08.228Z,95.47
2023-01-09T14:22:46.189Z,96.24
2023-01-09T14:25:29.311Z,95.82
2023-01-09T14:28:19.984Z,95.76
2023-01-09T14:31:31.224Z,96.25
2023-01-09T14:34:34.139Z,97.41
2023-01-09T14:37:04.409Z,96.81
2023-01-09T14:39:33.824Z,97.88
2023-01-09T14:42:08.241Z,96.69
2023-01-09T14:44:46.172Z,97.63
2023-01-09T14:47:22.657Z,98.32
2023-01-09T14:49:56.573Z,98.50
2023-01-09T14:52:31.518Z,98.43
2023-01-09T14:55:03.378Z,99.19
2023-01-09T14:57:34.069Z,98.11
2023-01-09T15:00:04.665Z,97.86
2023-01-09T15:02:37.205Z,98.32
2023-01-09T15:05:09.515Z,97.56
2023-01-09T15:07:45.437Z,98.43
2023-01-09T15:10:19.902Z,98.42
2023-01-09T15:12:50.916Z,98.34
2023-01-09T15:15:21.674Z,98.92
2023-01-09T15:17:56.264Z,99.32
2023-01-09T15:20:27.224Z,98.88
2023-01-09T15:22:57.910Z,99.29
2023-01-09T15:25:38.117Z,99.97
2023-01-09T15:28:30.715Z,100.00
2023-01-09T15:31:04.357Z,100.00
2023-01-09T15:33:33.814Z,100.00
2023-01-09T15:36:16.038Z,100.00
2023-01-09T15:38:46.865Z,100.00
2023-01-09T15:41:35.394Z,100.00
2023-01-09T15:44:04.979Z,100.00
2023-01-09T15:46:33.757Z,100.00
2023-01-09T15:49:02.439Z,100.00
2023-01-09T15:51:32.826Z,100.00
2023-01-09T15:54:04.120Z,100.00
2023-01-09T15:56:33.449Z,100.00
2023-01-09T15:59:02.134Z,100.00
2023-01-09T16:01:31.754Z,100.00
2023-01-09T16:04:07.020Z,100.00
2023-01-09T16:06:37.260Z,100.00
2023-01-09T16:09:17.151Z,100.00
2023-01-09T16:11:52.021Z,100.00
2023-01-09T16:14:23.135Z,100.00
2023-01-09T16:16:52.890Z,100.00
2023-01-09T16:19:32.429Z,100.00
2023-01-09T16:22:03.037Z,100.00
2023-01-09T16:24:41.816Z,100.00
2023-01-09T16:27:30.475Z,100.00
2023-01-09T16:30:00.144Z,100.00
2023-01-09T16:32:31.167Z,100.00
2023-01-09T16:35:00.878Z,100.00
2023-01-09T16:37:29.973Z,100.00
2023-01-09T16:40:25.955Z,100.00
2023-01-09T16:43:03.412Z,100.00
2023-01-09T16:45:34.600Z,100.00
2023-01-09T16:48:04.606Z,100.00
2023-01-09T16:50:32.987Z,100.00
2023-01-09T16:53:12.139Z,100.00
2023-01-09T16:55:41.983Z,100.00
2023-01-09T16:58:17.008Z,100.00
2023-01-09T17:00:47.932Z,100.00
2023-01-09T17:03:17.200Z,100.00
2023-01-09T17:05:45.756Z,100.00
2023-01-09T17:08:22.257Z,100.00
2023-01-09T17:10:53.755Z,100.00
2023-01-09T17:13:22.637Z,100.00
2023-01-09T17:15:51.577Z,100.00
2023-01-09T17:18:21.802Z,100.00
2023-01-09T17:20:51.851Z,100.00
2023-01-09T17:23:22.428Z,100.00
2023-01-09T17:26:14.142Z,100.00
2023-01-09T17:28:45.985Z,100.00
2023-01-09T17:31:14.565Z,100.00
2023-01-09T17:33:43.027Z,100.00
2023-01-09T17:36:28.535Z,100.00
2023-01-09T17:38:56.881Z,100.00
2023-01-09T17:41:29.110Z,100.00
2023-01-09T17:43:58.481Z,100.00
2023-01-09T17:46:29.980Z,100.00
2023-01-09T17:48:59.121Z,100.00
2023-01-09T17:51:29.314Z,100.00
2023-01-09T17:53:58.273Z,100.00
2023-01-09T17:56:32.070Z,100.00
2023-01-09T17:59:00.483Z,100.00
2023-01-09T18:01:28.940Z,100.00
2023-01-09T18:03:57.569Z,100.00
2023-01-09T18:06:26.019Z,100.00
2023-01-09T18:08:55.716Z,100.00
2023-01-09T18:11:25.737Z,100.00
2023-01-09T18:13:56.225Z,100.00
2023-01-09T18:16:26.586Z,100.00
2023-01-09T18:18:57.481Z,100.00
2023-01-09T18:21:27.938Z,100.00
2023-01-09T18:23:57.740Z,100.00
2023-01-09T18:26:26.396Z,100.00
2023-01-09T18:28:59.008Z,100.00
2023-01-09T18:31:29.009Z,100.00
2023-01-09T18:34:02.136Z,100.00
2023-01-09T18:36:30.841Z,100.00
2023-01-09T18:39:01.004Z,100.00
2023-01-09T18:41:30.650Z,100.00
2023-01-09T18:44:01.758Z,100.00
2023-01-09T18:46:32.318Z,100.00
2023-01-09T18:49:02.302Z,100.00
2023-01-09T18:51:31.210Z,100.00
2023-01-09T18:53:59.675Z,100.00
2023-01-09T18:56:28.078Z,100.00
2023-01-09T18:58:57.916Z,100.00
2023-01-09T19:01:29.344Z,100.00
2023-01-09T19:03:59.293Z,100.00
2023-01-09T19:06:28.748Z,100.00
2023-01-09T19:08:57.175Z,100.00
2023-01-09T19:11:25.759Z,100.00
2023-01-09T19:13:54.327Z,100.00
2023-01-09T19:16:22.905Z,100.00
2023-01-09T19:18:52.678Z,100.00
2023-01-09T19:21:23.669Z,100.00
2023-01-09T19:23:52.077Z,100.00
2023-01-09T19:26:23.781Z,100.00
2023-01-09T19:28:55.075Z,100.00
2023-01-09T19:31:24.695Z,100.00
2023-01-09T19:33:54.962Z,100.00
2023-01-09T19:36:23.451Z,100.00
2023-01-09T19:38:57.302Z,100.00
2023-01-09T19:41:25.786Z,100.00
2023-01-09T19:43:54.217Z,100.00
2023-01-09T19:46:25.026Z,100.00
2023-01-09T19:48:58.336Z,100.00
2023-01-09T19:51:26.834Z,100.00
2023-01-09T19:56:29.925Z,100.00
2023-01-09T19:58:59.975Z,100.00
2023-01-09T20:01:30.795Z,100.00
2023-01-09T20:04:03.302Z,100.00
2023-01-09T20:06:32.482Z,100.00
2023-01-09T20:09:03.284Z,100.00
2023-01-09T20:11:33.836Z,100.00
2023-01-09T20:14:03.887Z,100.00
2023-01-09T20:16:34.416Z,100.00
2023-01-09T20:19:07.361Z,100.00
2023-01-09T20:21:36.770Z,100.00
2023-01-09T20:24:07.264Z,100.00
2023-01-09T20:26:37.241Z,100.00
2023-01-09T20:29:05.597Z,100.00
2023-01-09T20:31:34.462Z,100.00
2023-01-09T20:34:04.569Z,100.00
2023-01-09T20:36:34.861Z,100.00
2023-01-09T20:39:05.729Z,100.00
2023-01-09T20:41:34.832Z,100.00
2023-01-09T20:44:06.895Z,100.00
2023-01-09T20:46:37.990Z,100.00
2023-01-09T20:49:09.414Z,100.00
2023-01-09T20:51:42.399Z,100.00
2023-01-09T20:54:10.739Z,100.00
2023-01-09T20:56:39.141Z,100.00
2023-01-09T20:59:13.022Z,100.00
2023-01-09T21:01:41.518Z,100.00
2023-01-09T21:04:11.317Z,100.00
2023-01-09T21:06:40.031Z,100.00
2023-01-09T21:09:08.431Z,100.00
2023-01-09T21:11:36.856Z,100.00
2023-01-09T21:14:05.250Z,100.00
2023-01-09T21:16:33.750Z,100.00
2023-01-09T21:19:02.273Z,100.00
2023-01-09T21:21:32.025Z,100.00
2023-01-09T21:24:01.561Z,100.00
2023-01-09T21:26:30.882Z,100.00
2023-01-09T21:29:01.254Z,100.00
2023-01-09T21:31:34.466Z,100.00
2023-01-09T21:34:05.519Z,100.00
2023-01-09T21:36:36.320Z,100.00
2023-01-09T21:39:07.909Z,100.00
2023-01-09T21:41:54.433Z,100.00
2023-01-09T21:44:40.038Z,100.00
2023-01-09T21:47:08.387Z,100.00
2023-01-09T21:49:40.950Z,100.00
2023-01-09T21:52:12.820Z,100.00
2023-01-09T21:54:42.030Z,100.00
2023-01-09T21:57:10.764Z,100.00
2023-01-09T21:59:39.114Z,100.00
2023-01-09T22:02:07.850Z,100.00
2023-01-09T22:04:36.322Z,100.00
2023-01-09T22:07:04.696Z,100.00
2023-01-09T22:09:34.449Z,100.00
2023-01-09T22:12:02.816Z,100.00
2023-01-09T22:14:31.284Z,100.00
2023-01-09T22:17:00.144Z,100.00
2023-01-09T22:19:28.500Z,100.00
2023-01-09T22:21:56.913Z,100.00
2023-01-09T22:24:25.308Z,100.00
2023-01-09T22:26:55.051Z,100.00
2023-01-09T22:29:23.427Z,100.00
2023-01-09T22:31:51.884Z,100.00
2023-01-09T22:34:20.326Z,100.00
2023-01-09T22:36:48.708Z,100.00
2023-01-09T22:39:18.857Z,100.00
2023-01-09T22:41:51.666Z,100.00
2023-01-09T22:44:21.761Z,100.00
2023-01-09T22:46:58.346Z,100.00
2023-01-09T22:49:30.224Z,100.00
2023-01-09T22:52:01.837Z,100.00
2023-01-09T22:54:30.217Z,100.00
2023-01-09T22:56:58.616Z,100.00
2023-01-09T22:59:29.003Z,100.00
2023-01-09T23:01:58.088Z,100.00
2023-01-09T23:04:26.940Z,100.00
2023-01-09T23:06:55.300Z,100.00
2023-01-09T23:09:23.726Z,100.00
2023-01-09T23:12:03.996Z,100.00
2023-01-09T23:14:36.551Z,100.00
2023-01-09T23:17:05.912Z,100.00
2023-01-09T23:19:36.205Z,100.00
2023-01-09T23:22:05.853Z,100.00
2023-01-09T23:24:34.913Z,100.00
2023-01-09T23:27:04.356Z,100.00
2023-01-09T23:29:38.712Z,100.00
2023-01-09T23:32:08.283Z,100.00
2023-01-09T23:34:36.943Z,100.00
2023-01-09T23:37:08.982Z,100.00
2023-01-09T23:39:37.576Z,100.00
2023-01-09T23:42:23.198Z,100.00
2023-01-09T23:44:52.954Z,100.00
2023-01-09T23:47:21.269Z,100.00
2023-01-09T23:49:49.651Z,100.00
2023-01-09T23:52:18.099Z,100.00
2023-01-09T23:54:46.429Z,100.00
2023-01-09T23:57:14.892Z,100.00
2023-01-09T23:59:43.472Z,100.00
